OROVILLE DAM (ORO)

Elevation: 900' · FEATHER R basin · Operator: CA Dept of Water Resources/O & M


Station comments:

12/31/2014Sensor for reservoir elevation has been repaired. Data from 12/30/14, 0900 is valid.
12/30/2014Hourly elevation and storage data is invalid since 12/25/2014. Data is being flagged.


Provisional data, subject to change.
Query executed Tuesday at 14:11:26   clock

Select a sensor type for a plot of data.
Note: Reservoir Flows are daily averages.

Earlier

Date RES ELE    STORAGE    RES CHG    TOC STO    ABV TOC    OUTFLOW    INFLOW    EVAP    FNF    PPT INC    RAIN    PPTINC4   
 FEET   AF   AF   AF   AF   CFS   CFS   CFS   CFS   INCHES   INCHES   INCHES  
02/02/2015 723.94 1446563 1345 3163000 -1716437 951 1694 65 2828 0.00 19.24 0.00
02/03/2015 724.11 1447993 1430 3163000 -1715007 946 1684 17 2394 0.00 19.24 0.00
02/04/2015 724.47 1451025 3032 3163000 -1711975 732 2225 7 2648 e 0.00 19.24 0.00
02/05/2015 724.74 1453302 2277 3163000 -1709698 804 2007 12 2648 e 0.00 19.24 0.00
02/06/2015 725.58 1460403 7101 3082157 -1621754 704 4332 5 8748 2.08 21.32 0.00
02/07/2015 729.82 1496610 36207 3078706 -1582096 792 19048 0 24436 0.00 21.32 2.08
02/08/2015 732.61 1520784 24175 3031758 -1510974 765 12904 0 16182 0.96 22.28 0.00
02/09/2015 738.84 1575707 54922 3013384 -1437678 289 27934 0 34843 0.36 22.64 1.00
02/10/2015 742.35 1607254 31547 3023123 -1415869 408 16341 28 22086 0.00 22.64 0.32
02/11/2015 744.60 1627709 20455 3032569 -1404860 427 10716 23 13173 0.00 22.64 0.00
02/12/2015 746.22 1642550 14841 3041480 -1398930 781 8374 18 13846 0.00 22.64 0.00
02/13/2015 747.50 1654343 11793 3050375 -1396032 785 6703 19 8734 0.00 22.64 0.00
02/14/2015 748.59 1664433 10090 3059004 -1394571 421 5527 19 7046 0.00 22.64 0.00
02/15/2015 749.56 1673448 9015 3067121 -1393673 420 5031 19 6577 0.00 22.64 0.00
02/16/2015 750.27 1680069 6621 3075247 -1395178 759 4116 19 5673 0.00 22.64 0.00
02/17/2015 750.97 1686614 6545 3083130 -1396516 764 4131 67 5487 0.00 22.64 0.00
02/18/2015 751.51 1691676 5062 3090713 -1399037 888 3448 8 4652 0.00 22.64 0.00
02/19/2015 752.16 1697783 6107 3098131 -1400348 432 3522 11 4691 0.00 22.64 0.00
02/20/2015 752.74 1703246 5463 3105327 -1402082 460 3177 11 4246 0.00 22.64 0.00
02/21/2015 753.31 1708626 5380 3112308 -- 471 3242 11 4237 0.00 22.64 0.00
02/22/2015 753.60 1711368 2742 3119078 -- 481 1874 11 3483 e 0.00 22.64 0.00
02/23/2015 754.19 1716956 5589 3125646 -1408690 654 3609 138 3483 e 0.00 22.64 0.00
02/24/2015 754.62 1721037 4080 3132016 -1410979 634 2751 59 2994 0.00 22.64 0.00
02/25/2015 755.04 1725030 3993 3138196 -1413166 622 2668 33 3335 0.00 22.64 0.00
02/26/2015 755.39 1728362 3333 3144190 -1415828 639 2352 81 2935 0.00 22.64 0.00
02/27/2015 755.79 1732176 3813 3138436 -1406260 643 2601 35 3669 0.24 22.88 0.00
02/28/2015 756.14 1735518 3343 3138418 -1402900 631 2343 27 3274 0.04 22.92 0.24
03/01/2015 756.53 1739248 3729 3143900 -1404652 644 2592 19 3340 0.00 22.92 0.04
03/02/2015 756.90 1742791 3543 3147763 -1404972 538 2382 57 3188 0.00 22.92 0.00
03/03/2015 -- -- -- -- -- -- -- -- -- -- -- 0.00

Later | Latest

Warning! This data is preliminary and subject to revision.

Show ORO Map | Plot ORO Data | 1 Month ORO Data | Real-Time ORO Data | ORO Info